Time;durP1;ratioP1;P1;durP2;ratioP2;P2;SDS_P1;SDS_P2;PMS_P1;PMS_P2;Temp;Humidity;BMP_temperature;BMP_pressure;BME280_temperature;BME280_humidity;BME280_pressure;Samples;Min_cycle;Max_cycle;Signal;HPM_P1;HPM_P2
2022/03/01 00:01:09;;;;;;;10.90;6.10;;;;;;;0.68;54.30;97867.25;5075402;28;20205;-63
2022/03/01 00:03:36;;;;;;;11.77;7.00;;;;;;;0.58;54.36;97866.44;5075391;28;20173;-62
2022/03/01 00:06:01;;;;;;;15.13;6.80;;;;;;;0.54;54.61;97875.41;5076110;28;20177;-62
2022/03/01 00:08:27;;;;;;;11.10;6.40;;;;;;;0.50;54.71;97866.34;5075540;28;20185;-63
2022/03/01 00:10:52;;;;;;;12.43;7.07;;;;;;;0.41;55.36;97871.34;5075164;28;20188;-62
2022/03/01 00:13:17;;;;;;;12.77;6.43;;;;;;;0.38;55.54;97874.19;5075569;28;20252;-63
2022/03/01 00:15:43;;;;;;;12.53;6.80;;;;;;;0.35;56.23;97868.50;5074142;28;20173;-64
2022/03/01 00:18:08;;;;;;;11.67;6.57;;;;;;;0.33;56.14;97878.97;5075050;28;20225;-62
2022/03/01 00:20:34;;;;;;;13.97;7.53;;;;;;;0.27;56.45;97876.91;5075163;28;20174;-62
2022/03/01 00:22:59;;;;;;;10.73;6.97;;;;;;;0.22;56.55;97880.84;5075290;28;20334;-64
2022/03/01 00:25:24;;;;;;;12.50;6.80;;;;;;;0.30;57.20;97875.81;5075293;28;20181;-62
2022/03/01 00:27:50;;;;;;;13.47;7.70;;;;;;;0.21;56.93;97885.19;5074984;28;20185;-63
2022/03/01 00:30:15;;;;;;;11.93;7.57;;;;;;;0.20;56.86;97887.88;5075274;28;20181;-63
2022/03/01 00:32:41;;;;;;;12.80;7.30;;;;;;;0.18;57.82;97887.19;5073893;28;20189;-62
2022/03/01 00:35:06;;;;;;;13.20;7.30;;;;;;;0.19;57.35;97879.34;5075347;28;20177;-62
2022/03/01 00:37:32;;;;;;;13.80;7.70;;;;;;;0.16;57.75;97883.97;5074814;28;20234;-63
2022/03/01 00:39:57;;;;;;;13.17;7.53;;;;;;;0.14;58.02;97880.69;5075102;28;20664;-62
2022/03/01 00:42:22;;;;;;;15.37;7.47;;;;;;;0.08;58.14;97873.50;5073593;28;20185;-63
2022/03/01 00:44:48;;;;;;;13.83;7.27;;;;;;;0.07;58.47;97872.69;5073963;28;20634;-63
2022/03/01 00:47:13;;;;;;;11.73;7.83;;;;;;;0.00;58.14;97874.97;5075126;28;20519;-63
2022/03/01 00:49:38;;;;;;;16.03;7.60;;;;;;;-0.05;58.93;97873.75;5074893;28;20185;-63
2022/03/01 00:52:04;;;;;;;10.23;6.97;;;;;;;-0.02;59.00;97870.91;5074640;28;20569;-63
2022/03/01 00:54:30;;;;;;;13.47;6.87;;;;;;;-0.04;59.13;97871.03;5072624;28;20181;-63
2022/03/01 00:56:55;;;;;;;17.03;8.10;;;;;;;-0.09;59.02;97865.47;5074091;28;20283;-63
2022/03/01 00:59:20;;;;;;;12.53;6.93;;;;;;;-0.09;59.61;97859.50;5074338;28;20471;-63
2022/03/01 01:01:46;;;;;;;12.67;7.70;;;;;;;-0.09;59.13;97854.34;5074272;28;20334;-63
2022/03/01 01:04:11;;;;;;;15.47;7.97;;;;;;;-0.16;59.91;97854.06;5074251;28;20174;-62
2022/03/01 01:06:37;;;;;;;10.40;7.13;;;;;;;-0.20;59.63;97860.44;5074313;28;20189;-63
2022/03/01 01:09:03;;;;;;;12.73;6.93;;;;;;;-0.29;60.25;97850.13;5073877;28;20581;-63
2022/03/01 01:11:28;;;;;;;11.57;7.50;;;;;;;-0.33;60.31;97848.75;5074308;28;20174;-63
2022/03/01 01:13:53;;;;;;;13.77;7.20;;;;;;;-0.25;60.27;97859.22;5074037;28;20185;-63
2022/03/01 01:16:19;;;;;;;14.83;7.80;;;;;;;-0.30;60.50;97851.06;5074127;28;20197;-63
2022/03/01 01:18:44;;;;;;;14.67;7.97;;;;;;;-0.38;60.71;97850.91;5073009;28;20290;-62
2022/03/01 01:21:11;;;;;;;12.77;8.17;;;;;;;-0.30;60.57;97848.50;5074017;28;20192;-62
2022/03/01 01:23:37;;;;;;;16.20;9.07;;;;;;;-0.42;60.89;97840.06;5074304;28;20208;-62
2022/03/01 01:26:02;;;;;;;12.53;7.40;;;;;;;-0.39;61.01;97844.16;5073971;28;20213;-62
2022/03/01 01:28:28;;;;;;;11.87;7.13;;;;;;;-0.52;61.47;97834.88;5072852;28;20188;-63
2022/03/01 01:30:53;;;;;;;12.67;7.93;;;;;;;-0.42;61.35;97827.19;5073406;28;20226;-62
2022/03/01 01:33:19;;;;;;;13.33;7.10;;;;;;;-0.47;61.48;97824.19;5074319;28;20185;-62
2022/03/01 01:35:44;;;;;;;17.17;8.03;;;;;;;-0.42;61.41;97828.00;5073665;28;20614;-63
2022/03/01 01:38:09;;;;;;;15.73;7.70;;;;;;;-0.61;61.67;97821.97;5073717;28;20197;-62
2022/03/01 01:40:35;;;;;;;12.93;7.53;;;;;;;-0.50;61.74;97821.88;5073671;28;20212;-62
2022/03/01 01:43:02;;;;;;;12.40;7.00;;;;;;;-0.49;61.80;97824.31;5072283;28;20559;-63
2022/03/01 01:45:29;;;;;;;12.37;8.17;;;;;;;-0.54;62.24;97823.09;5073520;28;20670;-60
2022/03/01 01:47:56;;;;;;;16.37;7.07;;;;;;;-0.58;62.10;97824.28;5073963;28;20677;-62
2022/03/01 01:50:23;;;;;;;10.40;7.07;;;;;;;-0.55;62.18;97821.44;5073302;28;20209;-62
2022/03/01 01:52:49;;;;;;;13.07;8.00;;;;;;;-0.61;61.94;97820.22;5073420;28;20193;-62
2022/03/01 01:55:19;;;;;;;13.47;7.07;;;;;;;-0.60;61.84;97832.13;5072915;28;20221;-63
2022/03/01 01:57:45;;;;;;;14.67;7.60;;;;;;;-0.58;61.77;97834.59;5073578;28;20294;-63
2022/03/01 02:00:12;;;;;;;11.30;6.57;;;;;;;-0.61;62.03;97832.25;5072646;28;20209;-60
2022/03/01 02:02:38;;;;;;;17.17;8.30;;;;;;;-0.63;61.96;97829.84;5073511;28;20181;-62
2022/03/01 02:05:04;;;;;;;12.30;7.43;;;;;;;-0.59;62.00;97833.78;5073455;28;20264;-62
2022/03/01 02:07:29;;;;;;;11.77;7.53;;;;;;;-0.70;61.76;97828.72;5073284;28;20652;-62
2022/03/01 02:09:55;;;;;;;12.97;7.83;;;;;;;-0.73;62.33;97831.56;5072908;28;20193;-62
2022/03/01 02:12:21;;;;;;;11.73;6.80;;;;;;;-0.79;62.15;97831.28;5072712;28;20293;-62
2022/03/01 02:14:47;;;;;;;13.47;7.80;;;;;;;-0.73;61.84;97831.56;5073071;28;20291;-62
2022/03/01 02:17:13;;;;;;;13.20;7.37;;;;;;;-0.80;61.99;97827.88;5070329;28;20264;-62
2022/03/01 02:19:46;;;;;;;12.37;6.97;;;;;;;-0.77;62.37;97827.63;5072246;28;20297;-62
2022/03/01 02:22:11;;;;;;;13.13;7.60;;;;;;;-0.85;61.97;97824.88;5073230;28;20598;-62
2022/03/01 02:24:37;;;;;;;11.10;6.80;;;;;;;-0.73;62.60;97820.47;5073070;28;20180;-64
2022/03/01 02:27:04;;;;;;;10.10;7.17;;;;;;;-0.81;62.23;97821.09;5072453;28;20272;-62
2022/03/01 02:29:31;;;;;;;16.80;7.23;;;;;;;-0.89;62.45;97818.34;5065424;28;20181;-62
2022/03/01 02:31:59;;;;;;;13.03;7.57;;;;;;;-0.90;62.30;97814.19;5072847;28;20213;-62
2022/03/01 02:34:25;;;;;;;13.87;7.60;;;;;;;-0.78;61.93;97823.41;5072470;28;20522;-62
2022/03/01 02:36:50;;;;;;;10.17;6.67;;;;;;;-0.82;61.81;97811.75;5072668;28;20185;-61
2022/03/01 02:39:16;;;;;;;10.43;7.27;;;;;;;-0.87;62.34;97804.44;5062604;28;20201;-62
2022/03/01 02:41:45;;;;;;;13.13;7.07;;;;;;;-0.84;62.07;97805.94;5072390;28;20190;-62
2022/03/01 02:44:11;;;;;;;17.43;7.70;;;;;;;-0.89;62.15;97810.63;5072642;28;20234;-63
2022/03/01 02:46:37;;;;;;;10.20;6.90;;;;;;;-0.98;62.29;97812.25;5072849;28;20177;-62
2022/03/01 02:49:04;;;;;;;13.70;7.20;;;;;;;-1.01;62.47;97811.69;5072724;28;20196;-63
2022/03/01 02:51:29;;;;;;;14.47;7.37;;;;;;;-0.98;62.47;97814.81;5072027;28;20272;-63
2022/03/01 02:53:55;;;;;;;10.80;7.57;;;;;;;-0.89;61.80;97816.59;5072006;28;20256;-62
2022/03/01 02:56:21;;;;;;;12.00;7.00;;;;;;;-0.95;62.55;97816.31;5072343;28;20196;-62
2022/03/01 02:58:46;;;;;;;13.53;7.97;;;;;;;-1.00;62.30;97811.53;5072040;28;20550;-63
2022/03/01 03:01:12;;;;;;;13.97;7.33;;;;;;;-0.88;62.23;97815.66;5071231;28;20260;-63
2022/03/01 03:03:38;;;;;;;10.67;7.47;;;;;;;-1.11;63.15;97818.53;5072493;28;20229;-62
2022/03/01 03:06:04;;;;;;;11.67;6.90;;;;;;;-1.05;62.90;97810.31;5072567;28;20181;-62
2022/03/01 03:08:30;;;;;;;13.07;7.83;;;;;;;-1.01;62.55;97815.09;5072037;28;20630;-62
2022/03/01 03:10:56;;;;;;;10.63;6.33;;;;;;;-1.03;62.48;97818.72;5072087;28;20303;-62
2022/03/01 03:13:21;;;;;;;10.40;6.57;;;;;;;-1.04;62.84;97807.59;5072000;28;20181;-62
2022/03/01 03:15:47;;;;;;;10.90;6.57;;;;;;;-0.95;62.05;97808.59;5072378;28;20321;-62
2022/03/01 03:18:16;;;;;;;9.57;7.03;;;;;;;-0.98;62.28;97816.56;5071902;28;20224;-62
2022/03/01 03:20:42;;;;;;;13.07;7.17;;;;;;;-1.04;62.74;97820.47;5071758;28;20177;-63
2022/03/01 03:23:08;;;;;;;13.70;7.20;;;;;;;-1.09;62.86;97811.50;5072036;28;20184;-62
2022/03/01 03:25:34;;;;;;;12.00;6.47;;;;;;;-0.97;62.65;97818.19;5070695;28;20188;-62
2022/03/01 03:27:59;;;;;;;11.97;6.47;;;;;;;-1.05;62.47;97816.25;5070914;28;20234;-63
2022/03/01 03:30:25;;;;;;;13.73;7.00;;;;;;;-1.05;62.30;97818.84;5071770;28;20529;-63
2022/03/01 03:32:51;;;;;;;11.77;7.47;;;;;;;-1.13;62.48;97810.16;5072510;28;20212;-62
2022/03/01 03:35:16;;;;;;;13.50;7.93;;;;;;;-1.08;62.62;97820.84;5072025;28;20205;-62
2022/03/01 03:37:42;;;;;;;13.68;8.98;;;;;;;-1.03;61.82;97822.09;5070792;28;20932;-62
2022/03/01 03:40:08;;;;;;;11.77;6.77;;;;;;;-0.98;61.98;97821.72;5071732;28;20524;-60
2022/03/01 03:42:33;;;;;;;11.43;7.53;;;;;;;-1.02;61.66;97825.50;5071928;28;20181;-61
2022/03/01 03:44:59;;;;;;;10.90;6.57;;;;;;;-1.10;62.42;97820.97;5072234;28;20327;-60
2022/03/01 03:47:24;;;;;;;19.23;8.23;;;;;;;-1.04;61.97;97820.47;5071733;28;20185;-62
2022/03/01 03:49:49;;;;;;;10.40;6.70;;;;;;;-1.06;61.92;97822.34;5071511;28;20201;-60
2022/03/01 03:52:15;;;;;;;10.47;7.40;;;;;;;-1.14;62.65;97823.94;5072032;28;20191;-60
2022/03/01 03:54:40;;;;;;;11.70;6.97;;;;;;;-1.12;62.33;97817.75;5071199;28;20256;-61
2022/03/01 03:57:08;;;;;;;12.20;7.10;;;;;;;-1.24;63.09;97812.78;5071823;28;20177;-60
2022/03/01 03:59:35;;;;;;;9.63;6.93;;;;;;;-1.16;62.70;97815.53;5070510;28;20263;-60
2022/03/01 04:02:05;;;;;;;10.37;6.77;;;;;;;-1.33;63.10;97814.34;5071785;28;20569;-60
2022/03/01 04:04:30;;;;;;;13.33;7.53;;;;;;;-1.31;62.94;97815.06;5071399;28;20253;-61
2022/03/01 04:06:56;;;;;;;13.40;7.77;;;;;;;-1.29;63.37;97810.63;5070891;28;20170;-63
2022/03/01 04:09:21;;;;;;;10.33;6.93;;;;;;;-1.15;62.71;97812.84;5070237;28;20212;-63
2022/03/01 04:11:46;;;;;;;12.27;7.20;;;;;;;-1.30;62.86;97804.66;5071665;28;20211;-63
2022/03/01 04:14:12;;;;;;;13.57;7.27;;;;;;;-1.32;62.80;97805.72;5071689;28;20188;-60
2022/03/01 04:16:38;;;;;;;12.37;7.20;;;;;;;-1.43;63.46;97814.31;5071365;28;20188;-63
2022/03/01 04:19:04;;;;;;;13.30;7.53;;;;;;;-1.42;63.45;97812.56;5071398;28;20225;-63
2022/03/01 04:21:29;;;;;;;12.30;7.40;;;;;;;-1.34;63.67;97802.47;5072100;28;20177;-60
2022/03/01 04:23:55;;;;;;;12.57;7.07;;;;;;;-1.24;62.81;97813.63;5071873;28;20192;-60
2022/03/01 04:26:20;;;;;;;12.73;7.13;;;;;;;-1.35;62.98;97803.41;5071846;28;20649;-60
2022/03/01 04:28:46;;;;;;;11.60;7.70;;;;;;;-1.52;63.51;97802.22;5071367;28;20177;-63
2022/03/01 04:31:11;;;;;;;11.00;6.90;;;;;;;-1.55;63.58;97805.03;5070236;28;20671;-60
2022/03/01 04:33:37;;;;;;;13.83;7.57;;;;;;;-1.54;63.84;97800.72;5071064;28;20606;-63
2022/03/01 04:36:03;;;;;;;14.10;7.13;;;;;;;-1.53;62.83;97800.59;5071416;28;20196;-62
2022/03/01 04:38:32;;;;;;;12.33;7.33;;;;;;;-1.56;62.95;97798.25;5071621;28;20197;-63
2022/03/01 04:40:58;;;;;;;15.57;7.87;;;;;;;-1.68;63.25;97794.16;5074559;28;20177;-61
2022/03/01 04:43:23;;;;;;;9.20;7.07;;;;;;;-1.74;63.69;97790.31;5074970;28;20532;-60
2022/03/01 04:45:49;;;;;;;12.63;7.93;;;;;;;-1.73;63.83;97786.00;5072762;28;20177;-60
2022/03/01 04:48:14;;;;;;;13.00;7.23;;;;;;;-1.72;63.86;97787.59;5074775;28;20219;-60
2022/03/01 04:50:40;;;;;;;14.47;7.67;;;;;;;-1.74;63.72;97789.50;5074984;28;20247;-63
2022/03/01 04:53:05;;;;;;;12.20;6.73;;;;;;;-1.77;63.95;97776.88;5074906;28;20181;-62
2022/03/01 04:55:31;;;;;;;15.63;7.80;;;;;;;-1.71;63.50;97776.41;5073766;28;20198;-60
2022/03/01 04:57:56;;;;;;;11.17;6.67;;;;;;;-1.71;63.93;97778.97;5074527;28;20598;-62
2022/03/01 05:00:21;;;;;;;12.50;6.57;;;;;;;-1.76;63.57;97774.19;5073527;28;20227;-62
2022/03/01 05:02:48;;;;;;;13.23;7.47;;;;;;;-1.79;63.07;97771.09;5074634;28;20185;-62
2022/03/01 05:05:14;;;;;;;15.63;8.07;;;;;;;-1.88;63.21;97758.97;5074403;28;20197;-63
2022/03/01 05:07:45;;;;;;;12.07;6.93;;;;;;;-1.90;63.52;97766.81;5074785;28;20265;-63
2022/03/01 05:10:12;;;;;;;14.43;7.87;;;;;;;-1.88;63.18;97762.34;5074172;28;20267;-63
2022/03/01 05:12:49;;;;;;;11.20;7.77;;;;;;;-1.89;63.01;97754.75;5074398;28;20185;-63
2022/03/01 05:15:16;;;;;;;13.88;9.13;;;;;;;-1.76;62.38;97766.50;5072892;28;20475;-63
2022/03/01 05:17:42;;;;;;;14.10;9.45;;;;;;;-1.66;62.98;97758.84;5071507;28;20396;-63
2022/03/01 05:20:09;;;;;;;14.35;9.70;;;;;;;-1.67;62.46;97767.47;5072205;28;20517;-63
2022/03/01 05:22:35;;;;;;;14.32;9.32;;;;;;;-1.66;62.19;97756.25;5071728;28;20399;-61
2022/03/01 05:25:01;;;;;;;13.73;9.50;;;;;;;-1.70;62.55;97760.03;5072937;28;20391;-60
2022/03/01 05:27:27;;;;;;;16.55;10.02;;;;;;;-1.62;62.38;97757.66;5072592;28;20452;-61
2022/03/01 05:29:53;;;;;;;12.57;9.00;;;;;;;-1.64;61.75;97748.44;5072628;28;20389;-63
2022/03/01 05:32:18;;;;;;;15.20;9.43;;;;;;;-1.71;62.62;97748.94;5073408;28;20717;-61
2022/03/01 05:34:44;;;;;;;14.75;9.95;;;;;;;-1.68;62.64;97745.31;5072984;28;20704;-60
2022/03/01 05:37:09;;;;;;;14.15;9.32;;;;;;;-1.67;62.34;97746.13;5072571;28;20793;-61
2022/03/01 05:39:35;;;;;;;13.70;9.40;;;;;;;-1.77;62.76;97740.91;5072199;28;20446;-61
2022/03/01 05:42:01;;;;;;;13.13;9.55;;;;;;;-1.64;62.63;97758.72;5072667;28;20391;-61
2022/03/01 05:44:26;;;;;;;14.23;9.17;;;;;;;-1.72;62.36;97756.78;5071310;28;20388;-61
2022/03/01 05:46:52;;;;;;;15.07;8.23;;;;;;;-1.77;62.62;97753.75;5073517;28;20178;-61
2022/03/01 05:49:18;;;;;;;13.07;7.90;;;;;;;-1.84;62.47;97763.72;5073324;28;20280;-61
2022/03/01 05:51:43;;;;;;;13.97;8.03;;;;;;;-1.77;62.98;97772.56;5072602;28;20264;-61
2022/03/01 05:54:09;;;;;;;11.23;7.30;;;;;;;-1.89;63.07;97768.44;5073539;28;20181;-61
2022/03/01 05:56:34;;;;;;;12.60;7.47;;;;;;;-2.04;64.01;97766.28;5072791;28;20185;-61
2022/03/01 05:58:59;;;;;;;11.03;7.20;;;;;;;-1.93;64.01;97776.50;5073314;28;20305;-62
2022/03/01 06:01:25;;;;;;;11.40;7.13;;;;;;;-1.88;63.33;97776.94;5072960;28;20190;-61
2022/03/01 06:03:50;;;;;;;12.47;7.60;;;;;;;-2.02;63.96;97788.34;5072730;28;20169;-61
2022/03/01 06:06:15;;;;;;;9.77;7.07;;;;;;;-1.95;63.45;97796.38;5073312;28;20189;-61
2022/03/01 06:08:41;;;;;;;13.50;7.73;;;;;;;-2.01;63.39;97799.44;5073120;28;20185;-61
2022/03/01 06:11:06;;;;;;;13.37;7.77;;;;;;;-1.92;63.36;97793.56;5071691;28;20514;-61
2022/03/01 06:13:32;;;;;;;13.07;7.20;;;;;;;-1.98;63.36;97794.88;5072593;28;20180;-61
2022/03/01 06:16:00;;;;;;;12.03;7.63;;;;;;;-1.84;63.24;97794.56;5072936;28;20189;-61
2022/03/01 06:18:26;;;;;;;18.33;7.80;;;;;;;-1.79;63.49;97792.44;5072978;28;20216;-61
2022/03/01 06:20:51;;;;;;;14.23;8.37;;;;;;;-1.80;62.79;97792.56;5073022;28;20195;-61
2022/03/01 06:23:17;;;;;;;16.33;7.83;;;;;;;-1.84;63.28;97799.69;5072071;28;20185;-61
2022/03/01 06:25:44;;;;;;;13.13;7.03;;;;;;;-1.72;63.10;97801.28;5072599;28;20269;-62
2022/03/01 06:28:09;;;;;;;12.83;7.50;;;;;;;-1.68;62.45;97801.84;5072754;28;20751;-61
2022/03/01 06:30:36;;;;;;;12.57;7.53;;;;;;;-1.56;62.15;97802.59;5072667;28;20223;-62
2022/03/01 06:33:01;;;;;;;10.73;7.13;;;;;;;-1.49;63.82;97804.53;5072737;28;20173;-61
2022/03/01 06:35:27;;;;;;;16.90;7.47;;;;;;;-1.39;62.09;97805.41;5072812;28;20192;-61
2022/03/01 06:37:52;;;;;;;12.03;7.57;;;;;;;-1.30;61.16;97814.94;5072575;28;20250;-61
2022/03/01 06:40:18;;;;;;;10.50;7.43;;;;;;;-1.21;60.83;97818.50;5072692;28;20284;-61
2022/03/01 06:42:43;;;;;;;14.33;7.80;;;;;;;-1.27;60.75;97817.25;5072866;28;20230;-61
2022/03/01 06:45:09;;;;;;;14.27;9.30;;;;;;;-1.21;61.00;97820.25;5071191;28;20431;-61
2022/03/01 06:47:35;;;;;;;13.33;7.83;;;;;;;-0.97;59.80;97823.34;5072396;28;20209;-61
2022/03/01 06:50:00;;;;;;;15.27;9.57;;;;;;;-0.68;59.39;97824.28;5070396;28;20453;-61
2022/03/01 06:52:26;;;;;;;13.80;8.30;;;;;;;-0.86;58.72;97836.13;5072440;28;20165;-61
2022/03/01 06:54:51;;;;;;;14.10;8.00;;;;;;;-0.72;58.87;97832.38;5071816;28;20205;-61
2022/03/01 06:57:17;;;;;;;12.67;7.47;;;;;;;-0.67;58.45;97832.81;5072501;28;20660;-61
2022/03/01 06:59:42;;;;;;;10.43;6.83;;;;;;;-0.69;58.62;97842.41;5071654;28;20278;-61
2022/03/01 07:02:07;;;;;;;10.07;6.63;;;;;;;-0.49;58.05;97838.94;5071883;28;20181;-61
2022/03/01 07:04:33;;;;;;;11.80;7.10;;;;;;;-0.40;57.76;97838.19;5072197;28;20173;-61
2022/03/01 07:06:58;;;;;;;10.80;7.30;;;;;;;-0.49;57.26;97847.50;5071894;28;20528;-61
2022/03/01 07:09:23;;;;;;;9.80;6.80;;;;;;;-0.53;57.63;97853.84;5072013;28;20310;-62
2022/03/01 07:11:49;;;;;;;12.27;7.23;;;;;;;-0.23;58.75;97850.41;5071769;28;20185;-61
2022/03/01 07:14:14;;;;;;;12.27;7.00;;;;;;;-0.08;57.75;97853.41;5071910;28;20209;-62
2022/03/01 07:16:40;;;;;;;10.90;7.40;;;;;;;-0.32;57.05;97860.69;5072432;28;20185;-62
2022/03/01 07:19:05;;;;;;;9.90;6.97;;;;;;;-0.35;56.89;97859.19;5071879;28;20225;-62
2022/03/01 07:21:31;;;;;;;12.53;7.27;;;;;;;-0.09;57.00;97862.09;5072383;28;20173;-62
2022/03/01 07:23:56;;;;;;;12.10;6.83;;;;;;;-0.38;56.91;97858.63;5072156;28;20218;-62
2022/03/01 07:26:22;;;;;;;9.57;6.93;;;;;;;-0.43;56.89;97857.25;5072165;28;20185;-63
2022/03/01 07:28:47;;;;;;;13.87;7.27;;;;;;;-0.55;56.78;97862.63;5071706;28;20284;-63
2022/03/01 07:31:12;;;;;;;12.60;6.77;;;;;;;-0.33;64.85;97862.44;5071906;28;20634;-63
2022/03/01 07:33:39;;;;;;;;;;;;;;;3.23;68.08;97853.09;5072233;28;20509;-64
2022/03/01 07:36:04;;;;;;;;;;;;;;;1.14;54.44;97850.97;5071946;28;19908;-63
2022/03/01 07:38:30;;;;;;;;;;;;;;;0.72;54.86;97868.63;5072313;28;20249;-63
2022/03/01 07:40:56;;;;;;;;;;;;;;;0.66;55.82;97861.44;5072385;28;19912;-64
2022/03/01 07:43:21;;;;;;;;;;;;;;;0.32;55.89;97869.59;5072563;28;20366;-63
2022/03/01 07:45:46;;;;;;;;;;;;;;;0.13;56.12;97874.72;5072134;28;19923;-62
2022/03/01 07:48:12;;;;;;;;;;;;;;;0.12;56.42;97882.56;5072583;28;19924;-63
2022/03/01 07:50:37;;;;;;;;;;;;;;;0.10;56.04;97874.19;5072417;28;19999;-63
2022/03/01 07:53:03;;;;;;;;;;;;;;;-0.05;56.16;97878.91;5072152;28;19999;-63
2022/03/01 07:55:29;;;;;;;;;;;;;;;0.10;56.10;97874.19;5071049;28;19919;-63
2022/03/01 07:57:54;;;;;;;;;;;;;;;-0.01;56.04;97875.94;5071799;28;19916;-64
2022/03/01 08:00:20;;;;;;;;;;;;;;;-0.08;56.52;97874.84;5071325;28;19938;-64
2022/03/01 08:02:45;;;;;;;;;;;;;;;0.05;55.87;97864.28;5071833;28;20006;-64
2022/03/01 08:05:11;;;;;;;;;;;;;;;0.34;55.49;97866.84;5071888;28;19966;-63
2022/03/01 08:07:36;;;;;;;;;;;;;;;-0.02;56.39;97873.50;5071886;28;19912;-63
2022/03/01 08:10:02;;;;;;;;;;;;;;;0.10;56.13;97879.34;5071768;28;20032;-63
2022/03/01 08:12:27;;;;;;;;;;;;;;;0.18;55.78;97869.97;5071497;28;19916;-64
2022/03/01 08:14:53;;;;;;;;;;;;;;;0.34;54.82;97866.84;5074739;28;20325;-66
2022/03/01 08:17:19;;;;;;;;;;;;;;;0.12;55.54;97862.78;5075575;28;20352;-64
2022/03/01 08:19:45;;;;;;;;;;;;;;;0.30;55.13;97856.00;5074142;28;19916;-64
2022/03/01 08:22:10;;;;;;;;;;;;;;;0.34;54.47;97851.38;5075616;28;19945;-66
2022/03/01 08:24:35;;;;;;;;;;;;;;;0.42;54.66;97851.53;5075670;28;19912;-63
2022/03/01 08:27:01;;;;;;;;;;;;;;;0.31;54.74;97846.50;5069952;28;19959;-63
2022/03/01 08:29:28;;;;;;;;;;;;;;;0.16;55.22;97845.31;5053979;28;19909;-63
2022/03/01 08:31:53;;;;;;;;;;;;;;;0.39;55.05;97842.28;5055540;28;19912;-63
2022/03/01 08:34:19;;;;;;;;;;;;;;;0.55;54.07;97849.50;5055555;28;20318;-63
2022/03/01 08:36:44;;;;;;;;;;;;;;;0.57;54.12;97854.50;5068262;28;19952;-62
2022/03/01 08:39:09;;;;;;;;;;;;;;;0.40;53.95;97856.81;5075242;28;19915;-63
2022/03/01 08:41:34;;;;;;;;;;;;;;;0.33;54.61;97847.19;5072016;28;19912;-63
2022/03/01 08:44:00;;;;;;;;;;;;;;;0.63;54.04;97844.44;5055140;28;19912;-63
2022/03/01 08:46:25;;;;;;;;;;;;;;;0.87;53.04;97843.19;5055260;28;19931;-64
2022/03/01 08:48:53;;;;;;;;;;;;;;;0.58;53.66;97849.19;5055225;28;19917;-64
2022/03/01 08:51:19;;;;;;;;;;;;;;;0.53;54.01;97848.81;5054988;28;20361;-64
2022/03/01 08:53:44;;;;;;;;;;;;;;;0.55;53.93;97851.25;5057786;28;19920;-64
2022/03/01 08:56:09;;;;;;;;;;;;;;;0.81;53.84;97855.69;5074520;28;19908;-64
2022/03/01 08:58:35;;;;;;;;;;;;;;;0.60;53.36;97849.88;5075010;28;19971;-64
2022/03/01 09:01:00;;;;;;;;;;;;;;;0.79;53.27;97847.25;5075053;28;19909;-64
2022/03/01 09:03:26;;;;;;;;;;;;;;;0.92;53.25;97838.41;5075366;28;19919;-63
2022/03/01 09:05:51;;;;;;;;;;;;;;;0.81;52.62;97850.53;5075042;28;20411;-64
2022/03/01 09:08:17;;;;;;;;;;;;;;;0.70;53.33;97844.72;5074364;28;20442;-63
2022/03/01 09:10:42;;;;;;;;;;;;;;;0.90;52.91;97835.97;5074222;28;20384;-63
2022/03/01 09:13:07;;;;;;;;;;;;;;;1.15;52.22;97832.78;5073679;28;19908;-64
2022/03/01 09:15:33;;;;;;;;;;;;;;;0.85;52.55;97827.81;5074833;28;19908;-64
2022/03/01 09:18:03;;;;;;;;;;;;;;;0.78;52.20;97824.19;5078492;28;19919;-63
2022/03/01 09:20:28;;;;;;;;;;;;;;;0.93;52.27;97835.69;5076908;28;19941;-63
2022/03/01 09:22:54;;;;;;;;;;;;;;;0.87;53.05;97819.94;5092551;28;19908;-64
2022/03/01 09:25:20;;;;;;;;;;;;;;;1.01;52.93;97820.31;5073718;28;19958;-64
2022/03/01 09:27:45;;;;;;;;;;;;;;;1.07;52.72;97818.94;5074447;28;19959;-64
2022/03/01 09:30:10;;;;;;;;;;;;;;;0.99;52.69;97817.06;5074202;28;19908;-65
2022/03/01 09:32:36;;;;;;;;;;;;;;;1.01;52.35;97809.97;5074701;28;19908;-64
2022/03/01 09:35:01;;;;;;;;;;;;;;;0.94;52.45;97813.28;5074558;28;19966;-63
2022/03/01 09:37:28;;;;;;;;;;;;;;;0.79;52.27;97810.31;5074549;28;19923;-63
2022/03/01 09:39:53;;;;;;;;;;;;;;;0.94;52.50;97811.53;5074551;28;19915;-63
2022/03/01 09:42:18;;;;;;;;;;;;;;;1.18;52.11;97809.22;5067666;28;19908;-63
2022/03/01 09:44:44;;;;;;;;;;;;;;;1.22;52.10;97804.63;5054332;28;19970;-64
2022/03/01 09:47:09;;;;;;;;;;;;;;;1.18;51.83;97805.84;5053628;28;19962;-64
2022/03/01 09:49:35;;;;;;;;;;;;;;;1.35;51.82;97794.75;5054196;28;19938;-64
2022/03/01 09:52:00;;;;;;;;;;;;;;;1.65;50.89;97793.63;5054568;28;19967;-64
2022/03/01 09:54:25;;;;;;;;;;;;;;;1.84;50.45;97785.75;5054124;28;19909;-64
2022/03/01 09:56:50;;;;;;;;;;;;;;;2.02;49.65;97790.91;5053633;28;19915;-64
2022/03/01 09:59:16;;;;;;;;;;;;;;;1.65;48.84;97798.81;5035867;28;19916;-64
2022/03/01 10:01:51;;;;;;;;;;;;;;;1.54;49.38;97799.81;5054231;28;19909;-64
2022/03/01 10:04:16;;;;;;;;;;;;;;;1.84;49.63;97797.88;5054067;28;19963;-63
2022/03/01 10:06:44;;;;;;;;;;;;;;;1.82;49.91;97804.94;5054200;28;19912;-64
2022/03/01 10:09:17;;;;;;;;;;;;;;;2.07;48.80;97791.28;5053674;28;19908;-64
2022/03/01 10:11:42;;;;;;;;;;;;;;;2.05;48.83;97785.47;5053574;28;20050;-64
2022/03/01 10:14:09;;;;;;;;;;;;;;;2.17;48.39;97791.22;5053735;28;20330;-63
2022/03/01 10:16:44;;;;;;;;;;;;;;;1.92;48.80;97785.84;5053761;28;19924;-63
2022/03/01 10:19:17;;;;;;;;;;;;;;;2.05;49.06;97788.88;5054550;28;20072;-64
2022/03/01 10:21:46;;;;;;;;;;;;;;;2.07;47.64;97784.34;5073257;28;19961;-64
2022/03/01 10:24:13;;;;;;;;;;;;;;;2.39;47.49;97783.00;5072439;28;20288;-64
2022/03/01 10:26:39;;;;;;;;;;;;;;;2.75;47.29;97784.53;5073386;28;19919;-64
2022/03/01 10:29:05;;;;;;;;;;;;;;;2.99;46.24;97783.84;5073040;28;19924;-64
2022/03/01 10:31:31;;;;;;;;;;;;;;;2.79;46.73;97778.06;5072763;28;19920;-64
2022/03/01 10:33:57;;;;;;;;;;;;;;;2.91;46.73;97783.78;5072835;28;19916;-63
2022/03/01 10:36:28;;;;;;;;;;;;;;;3.04;45.57;97788.56;5072817;28;19958;-64
2022/03/01 10:39:03;;;;;;;8.47;5.93;;;;;;;2.97;56.29;97783.19;5072680;28;20277;-66
2022/03/01 10:41:32;;;;;;;14.73;6.27;;;;;;;3.62;47.71;97773.09;5072233;28;20170;-64
2022/03/01 10:44:00;;;;;;;9.77;6.93;;;;;;;3.96;48.16;97778.16;5072201;28;20626;-64
2022/03/01 10:46:27;;;;;;;11.13;6.70;;;;;;;3.98;46.30;97774.44;5072385;28;20181;-65
2022/03/01 10:49:05;;;;;;;11.13;6.83;;;;;;;4.16;47.74;97775.09;5072414;28;20189;-66
2022/03/01 10:51:31;;;;;;;25.77;20.77;;;;;;;4.92;44.52;97771.28;5069957;28;20637;-66
2022/03/01 10:53:59;;;;;;;80.30;71.60;;;;;;;4.50;43.95;97779.31;5071630;28;20196;-64
2022/03/01 10:56:34;;;;;;;42.93;29.37;;;;;;;4.11;44.22;97774.78;5071367;28;20173;-64
2022/03/01 10:59:01;;;;;;;14.23;8.90;;;;;;;4.33;43.44;97764.72;5072453;28;20200;-64
2022/03/01 11:01:27;;;;;;;10.03;7.30;;;;;;;4.66;42.70;97766.31;5071836;28;20286;-64
2022/03/01 11:03:53;;;;;;;8.80;5.93;;;;;;;4.69;42.24;97765.97;5070401;28;20640;-64
2022/03/01 11:06:19;;;;;;;11.00;6.67;;;;;;;4.98;41.74;97761.03;5071992;28;20173;-64
2022/03/01 11:08:45;;;;;;;9.23;6.30;;;;;;;4.60;41.90;97762.59;5072185;28;20541;-64
2022/03/01 11:11:11;;;;;;;8.87;6.17;;;;;;;4.16;43.03;97766.50;5071036;28;20515;-64
2022/03/01 11:13:46;;;;;;;10.20;5.90;;;;;;;4.20;42.86;97760.00;5072114;28;20188;-64
2022/03/01 11:16:33;;;;;;;7.93;5.87;;;;;;;4.27;43.00;97758.41;5072082;28;20267;-65
2022/03/01 11:19:19;;;;;;;9.07;5.63;;;;;;;4.54;42.64;97750.25;5071484;28;20428;-63
2022/03/01 11:21:48;;;;;;;11.63;5.70;;;;;;;4.35;42.94;97752.38;5068421;28;20182;-63
2022/03/01 11:24:16;;;;;;;8.73;5.93;;;;;;;4.48;41.97;97752.69;5072496;28;20181;-63
2022/03/01 11:26:42;;;;;;;9.20;6.20;;;;;;;4.74;41.38;97748.09;5071736;28;20180;-64
2022/03/01 11:29:10;;;;;;;8.67;5.70;;;;;;;4.80;40.96;97747.44;5071550;28;20185;-63
2022/03/01 11:31:36;;;;;;;13.47;6.17;;;;;;;4.30;40.91;97749.47;5069661;28;20185;-63
2022/03/01 11:34:13;;;;;;;10.20;6.50;;;;;;;4.18;41.43;97741.19;5072028;28;20181;-63
2022/03/01 11:36:46;;;;;;;8.10;5.70;;;;;;;4.74;40.27;97736.91;5072042;28;20212;-63
2022/03/01 11:39:13;;;;;;;9.17;5.90;;;;;;;5.07;40.30;97727.25;5070273;28;20292;-62
2022/03/01 11:41:47;;;;;;;7.93;5.50;;;;;;;5.21;40.15;97731.72;5071443;28;20249;-62
2022/03/01 11:44:21;;;;;;;11.17;5.90;;;;;;;5.34;39.41;97729.38;5071225;28;20665;-63